Orchard, TX (77464)

12:13 AM CDT on August 30, 2016 (GMT -0500)
Fulbrook on Fulshear Creek | | Change Station

Elev 135 ft 29.68 °N, 95.90 °W | Updated 2 minutes ago

Overcast
Overcast
76.5 °F
Feels Like 77 °F
N
0.0
Wind Variable Wind from ESE
Gusts 2.0 mph

Today
High -- | Low -- °F
--% Chance of Precip.
Yesterday
High -- | Low -- °F
Precip. -- in
Pressure 29.97 in
Visibility 10.0 miles
Clouds Overcast 11000 ft
Heat Index 77 °F
Dew Point 74 °F
Humidity 93%
Rainfall 0.00 in
Snow Depth Not available.
7:00 AM 7:47 PM
Waning Crescent, 5% visible
METAR KSGR 300453Z AUTO 04008KT 10SM OVC110 26/23 A2997 RMK AO2 SLP149 T02560233
Pressure 29.97 in
Visibility 10.0 miles
Clouds Overcast 11000 ft
Heat Index 77 °F
Dew Point 74 °F
Humidity 93%
Rainfall 0.00 in
Snow Depth Not available.
7:00 AM 7:47 PM
Waning Crescent, 5% visible
METAR KSGR 300453Z AUTO 04008KT 10SM OVC110 26/23 A2997 RMK AO2 SLP149 T02560233
Tropical Depression Nine was centered about 170 miles west-southwest of Key West, Florida, as of late Monday morning. The depression may struggle a bit in the southern Gulf of Mexico before finally making a Gulf Coast landfall later this week with soaking rain and gusty winds.

This latest system was designated a tropical depression Sunday after a Hurricane Hunter reconnaissance mission finally found a sufficiently organized low-pressure center with collocated shower and thunderstorm activity.

10-Day Weather Forecast

Almanac

Astronomy

Aug. 30, 2016 Rise Set
Actual Time
Civil Twilight
Nautical Twilight
Astronomical Twilight
Moon
Length of Visible Light
Length of Day
Tomorrow will be .
, % of the Moon is Illuminated

Today's Extremes

State Highs State Lows

Community

WunderPhotos

Upload Photos

1,935,793 photos uploaded!

WunderBlog® & News

Nearby

Air Quality

  Air Quality AQ Index Pollutant
Not available.

Snow Depth

Station Depth Elevation

Earthquake Activity

City Distance Mag. Time & Date
Minimum magnitude displayed is 2.5.

Coastal Water Temperatures

Place Temperature

Stations

Nearby Weather Stations

Station Location Temp. Windchill Dew Point Humidity Wind Precip. Elev Updated Type
                   

Watches & Warnings

There are currently no watches in effect.